sensor_id;sensor_type;location;lat;lon;timestamp;P1;durP1;ratioP1;P2;durP2;ratioP2
151;SDS011;68;48.792;9.164;2023-07-20T00:02:05;23.67;;;7.70;;
151;SDS011;68;48.792;9.164;2023-07-20T00:04:33;21.73;;;8.77;;
151;SDS011;68;48.792;9.164;2023-07-20T00:06:59;29.83;;;9.83;;
151;SDS011;68;48.792;9.164;2023-07-20T00:09:26;21.67;;;8.20;;
151;SDS011;68;48.792;9.164;2023-07-20T00:11:53;23.10;;;8.77;;
151;SDS011;68;48.792;9.164;2023-07-20T00:14:20;24.73;;;11.20;;
151;SDS011;68;48.792;9.164;2023-07-20T00:16:49;23.67;;;8.97;;
151;SDS011;68;48.792;9.164;2023-07-20T00:19:21;24.73;;;9.10;;
151;SDS011;68;48.792;9.164;2023-07-20T00:21:48;21.20;;;8.07;;
151;SDS011;68;48.792;9.164;2023-07-20T00:24:15;23.90;;;8.87;;
151;SDS011;68;48.792;9.164;2023-07-20T00:26:42;26.57;;;10.37;;
151;SDS011;68;48.792;9.164;2023-07-20T00:29:09;23.13;;;10.57;;
151;SDS011;68;48.792;9.164;2023-07-20T00:31:36;26.50;;;13.57;;
151;SDS011;68;48.792;9.164;2023-07-20T00:34:04;23.50;;;12.37;;
151;SDS011;68;48.792;9.164;2023-07-20T00:36:31;25.97;;;12.20;;
151;SDS011;68;48.792;9.164;2023-07-20T00:38:58;23.33;;;9.97;;
151;SDS011;68;48.792;9.164;2023-07-20T00:41:25;23.57;;;10.67;;
151;SDS011;68;48.792;9.164;2023-07-20T00:43:54;25.33;;;11.10;;
151;SDS011;68;48.792;9.164;2023-07-20T00:46:21;23.93;;;10.57;;
151;SDS011;68;48.792;9.164;2023-07-20T00:48:50;22.80;;;9.17;;
151;SDS011;68;48.792;9.164;2023-07-20T00:51:18;28.83;;;11.17;;
151;SDS011;68;48.792;9.164;2023-07-20T00:53:46;22.87;;;10.80;;
151;SDS011;68;48.792;9.164;2023-07-20T00:56:13;22.77;;;10.70;;
151;SDS011;68;48.792;9.164;2023-07-20T00:58:40;21.40;;;8.90;;
151;SDS011;68;48.792;9.164;2023-07-20T01:01:07;23.70;;;10.97;;
151;SDS011;68;48.792;9.164;2023-07-20T01:03:33;22.87;;;8.97;;
151;SDS011;68;48.792;9.164;2023-07-20T01:06:01;22.37;;;9.60;;
151;SDS011;68;48.792;9.164;2023-07-20T01:08:40;22.70;;;10.40;;
151;SDS011;68;48.792;9.164;2023-07-20T01:11:16;25.20;;;12.30;;
151;SDS011;68;48.792;9.164;2023-07-20T01:13:48;27.00;;;13.67;;
151;SDS011;68;48.792;9.164;2023-07-20T01:16:16;23.60;;;10.40;;
151;SDS011;68;48.792;9.164;2023-07-20T01:18:43;26.97;;;13.60;;
151;SDS011;68;48.792;9.164;2023-07-20T01:21:20;24.30;;;11.20;;
151;SDS011;68;48.792;9.164;2023-07-20T01:24:00;27.47;;;10.40;;
151;SDS011;68;48.792;9.164;2023-07-20T01:26:54;24.77;;;10.27;;
151;SDS011;68;48.792;9.164;2023-07-20T01:29:42;22.67;;;9.00;;
151;SDS011;68;48.792;9.164;2023-07-20T01:32:21;26.87;;;10.70;;
151;SDS011;68;48.792;9.164;2023-07-20T01:34:50;24.93;;;12.57;;
151;SDS011;68;48.792;9.164;2023-07-20T01:37:20;23.87;;;13.90;;
151;SDS011;68;48.792;9.164;2023-07-20T01:39:50;25.37;;;15.03;;
151;SDS011;68;48.792;9.164;2023-07-20T01:42:20;24.37;;;12.87;;
151;SDS011;68;48.792;9.164;2023-07-20T01:44:47;27.83;;;11.80;;
151;SDS011;68;48.792;9.164;2023-07-20T01:47:16;25.07;;;11.77;;
151;SDS011;68;48.792;9.164;2023-07-20T01:49:44;24.70;;;10.97;;
151;SDS011;68;48.792;9.164;2023-07-20T01:52:11;24.60;;;13.70;;
151;SDS011;68;48.792;9.164;2023-07-20T01:54:38;26.17;;;12.93;;
151;SDS011;68;48.792;9.164;2023-07-20T01:57:05;27.07;;;14.20;;
151;SDS011;68;48.792;9.164;2023-07-20T01:59:31;24.87;;;13.07;;
151;SDS011;68;48.792;9.164;2023-07-20T02:01:58;25.90;;;13.67;;
151;SDS011;68;48.792;9.164;2023-07-20T02:04:25;28.80;;;13.00;;
151;SDS011;68;48.792;9.164;2023-07-20T02:06:53;23.13;;;10.37;;
151;SDS011;68;48.792;9.164;2023-07-20T02:09:20;25.50;;;13.47;;
151;SDS011;68;48.792;9.164;2023-07-20T02:11:47;29.73;;;14.67;;
151;SDS011;68;48.792;9.164;2023-07-20T02:14:15;26.50;;;15.20;;
151;SDS011;68;48.792;9.164;2023-07-20T02:16:41;29.20;;;14.80;;
151;SDS011;68;48.792;9.164;2023-07-20T02:19:08;27.73;;;15.37;;
151;SDS011;68;48.792;9.164;2023-07-20T02:21:35;25.93;;;12.87;;
151;SDS011;68;48.792;9.164;2023-07-20T02:24:04;31.80;;;18.03;;
151;SDS011;68;48.792;9.164;2023-07-20T02:26:31;26.00;;;13.83;;
151;SDS011;68;48.792;9.164;2023-07-20T02:28:58;26.27;;;14.27;;
151;SDS011;68;48.792;9.164;2023-07-20T02:31:25;26.97;;;14.80;;
151;SDS011;68;48.792;9.164;2023-07-20T02:33:52;26.80;;;13.47;;
151;SDS011;68;48.792;9.164;2023-07-20T02:36:18;28.87;;;17.37;;
151;SDS011;68;48.792;9.164;2023-07-20T02:38:45;28.83;;;16.13;;
151;SDS011;68;48.792;9.164;2023-07-20T02:41:14;27.17;;;15.47;;
151;SDS011;68;48.792;9.164;2023-07-20T02:43:40;26.67;;;15.13;;
151;SDS011;68;48.792;9.164;2023-07-20T02:46:07;23.97;;;13.50;;
151;SDS011;68;48.792;9.164;2023-07-20T02:48:34;28.17;;;17.00;;
151;SDS011;68;48.792;9.164;2023-07-20T02:51:01;28.67;;;15.30;;
151;SDS011;68;48.792;9.164;2023-07-20T02:53:27;24.97;;;12.63;;
151;SDS011;68;48.792;9.164;2023-07-20T02:55:54;31.10;;;16.60;;
151;SDS011;68;48.792;9.164;2023-07-20T02:58:22;26.93;;;14.10;;
151;SDS011;68;48.792;9.164;2023-07-20T03:00:49;29.10;;;16.70;;
151;SDS011;68;48.792;9.164;2023-07-20T03:03:16;23.23;;;12.47;;
151;SDS011;68;48.792;9.164;2023-07-20T03:05:42;28.20;;;16.90;;
151;SDS011;68;48.792;9.164;2023-07-20T03:08:09;25.53;;;15.37;;
151;SDS011;68;48.792;9.164;2023-07-20T03:10:38;25.57;;;14.97;;
151;SDS011;68;48.792;9.164;2023-07-20T03:13:05;29.97;;;16.60;;
151;SDS011;68;48.792;9.164;2023-07-20T03:15:33;31.97;;;19.87;;
151;SDS011;68;48.792;9.164;2023-07-20T03:18:00;26.37;;;14.20;;
151;SDS011;68;48.792;9.164;2023-07-20T03:20:28;28.00;;;15.97;;
151;SDS011;68;48.792;9.164;2023-07-20T03:22:55;26.27;;;16.30;;
151;SDS011;68;48.792;9.164;2023-07-20T03:25:22;26.37;;;16.07;;
151;SDS011;68;48.792;9.164;2023-07-20T03:27:48;25.57;;;14.60;;
151;SDS011;68;48.792;9.164;2023-07-20T03:30:15;27.20;;;14.93;;
151;SDS011;68;48.792;9.164;2023-07-20T03:32:44;25.50;;;15.00;;
151;SDS011;68;48.792;9.164;2023-07-20T03:35:10;24.70;;;13.07;;
151;SDS011;68;48.792;9.164;2023-07-20T03:37:37;26.13;;;14.17;;
151;SDS011;68;48.792;9.164;2023-07-20T03:40:05;24.43;;;13.20;;
151;SDS011;68;48.792;9.164;2023-07-20T03:42:32;26.50;;;16.23;;
151;SDS011;68;48.792;9.164;2023-07-20T03:44:59;29.00;;;16.87;;
151;SDS011;68;48.792;9.164;2023-07-20T03:47:29;27.87;;;15.20;;
151;SDS011;68;48.792;9.164;2023-07-20T03:49:57;26.40;;;15.13;;
151;SDS011;68;48.792;9.164;2023-07-20T03:52:24;28.70;;;17.40;;
151;SDS011;68;48.792;9.164;2023-07-20T03:54:50;28.93;;;18.00;;
151;SDS011;68;48.792;9.164;2023-07-20T03:57:17;27.57;;;17.60;;
151;SDS011;68;48.792;9.164;2023-07-20T03:59:44;30.10;;;17.67;;
151;SDS011;68;48.792;9.164;2023-07-20T04:02:12;29.00;;;16.70;;
151;SDS011;68;48.792;9.164;2023-07-20T04:04:39;26.40;;;14.10;;
151;SDS011;68;48.792;9.164;2023-07-20T04:07:07;27.30;;;15.70;;
151;SDS011;68;48.792;9.164;2023-07-20T04:09:34;25.87;;;14.83;;
151;SDS011;68;48.792;9.164;2023-07-20T04:12:01;28.77;;;15.27;;
151;SDS011;68;48.792;9.164;2023-07-20T04:14:27;25.57;;;15.47;;
151;SDS011;68;48.792;9.164;2023-07-20T04:16:54;26.90;;;14.10;;
151;SDS011;68;48.792;9.164;2023-07-20T04:19:21;24.13;;;13.47;;
151;SDS011;68;48.792;9.164;2023-07-20T04:21:48;27.13;;;14.97;;
151;SDS011;68;48.792;9.164;2023-07-20T04:24:16;25.10;;;13.27;;
151;SDS011;68;48.792;9.164;2023-07-20T04:26:42;25.93;;;14.00;;
151;SDS011;68;48.792;9.164;2023-07-20T04:29:09;26.90;;;15.47;;
151;SDS011;68;48.792;9.164;2023-07-20T04:31:36;26.67;;;14.33;;
151;SDS011;68;48.792;9.164;2023-07-20T04:34:03;25.50;;;14.63;;
151;SDS011;68;48.792;9.164;2023-07-20T04:36:29;29.63;;;16.93;;
151;SDS011;68;48.792;9.164;2023-07-20T04:38:56;32.87;;;17.60;;
151;SDS011;68;48.792;9.164;2023-07-20T04:41:24;23.80;;;12.13;;
151;SDS011;68;48.792;9.164;2023-07-20T04:43:51;22.50;;;12.63;;
151;SDS011;68;48.792;9.164;2023-07-20T04:46:17;29.97;;;17.57;;
151;SDS011;68;48.792;9.164;2023-07-20T04:48:44;27.47;;;15.17;;
151;SDS011;68;48.792;9.164;2023-07-20T04:51:11;27.77;;;13.60;;
151;SDS011;68;48.792;9.164;2023-07-20T04:53:37;23.40;;;13.10;;
151;SDS011;68;48.792;9.164;2023-07-20T04:56:04;26.37;;;12.47;;
151;SDS011;68;48.792;9.164;2023-07-20T04:58:32;24.30;;;12.90;;
151;SDS011;68;48.792;9.164;2023-07-20T05:00:59;27.20;;;12.37;;
151;SDS011;68;48.792;9.164;2023-07-20T05:03:27;22.40;;;11.27;;
151;SDS011;68;48.792;9.164;2023-07-20T05:05:54;26.03;;;12.40;;
151;SDS011;68;48.792;9.164;2023-07-20T05:08:21;26.20;;;11.90;;
151;SDS011;68;48.792;9.164;2023-07-20T05:10:48;27.50;;;15.50;;
151;SDS011;68;48.792;9.164;2023-07-20T05:13:15;25.80;;;11.57;;
151;SDS011;68;48.792;9.164;2023-07-20T05:15:43;24.77;;;11.97;;
151;SDS011;68;48.792;9.164;2023-07-20T05:18:10;26.00;;;14.10;;
151;SDS011;68;48.792;9.164;2023-07-20T05:20:37;23.37;;;13.07;;
151;SDS011;68;48.792;9.164;2023-07-20T05:23:04;24.53;;;11.90;;
151;SDS011;68;48.792;9.164;2023-07-20T05:25:31;30.33;;;12.07;;
151;SDS011;68;48.792;9.164;2023-07-20T05:27:57;23.27;;;12.77;;
151;SDS011;68;48.792;9.164;2023-07-20T05:30:25;24.80;;;12.87;;
151;SDS011;68;48.792;9.164;2023-07-20T05:32:55;25.13;;;13.63;;
151;SDS011;68;48.792;9.164;2023-07-20T05:35:22;27.30;;;13.60;;
151;SDS011;68;48.792;9.164;2023-07-20T05:37:49;23.27;;;10.10;;
151;SDS011;68;48.792;9.164;2023-07-20T05:40:16;28.57;;;14.40;;
151;SDS011;68;48.792;9.164;2023-07-20T05:42:44;25.53;;;13.00;;
151;SDS011;68;48.792;9.164;2023-07-20T05:45:13;31.90;;;11.60;;
151;SDS011;68;48.792;9.164;2023-07-20T05:47:40;26.43;;;11.80;;
151;SDS011;68;48.792;9.164;2023-07-20T05:50:09;23.67;;;12.00;;
151;SDS011;68;48.792;9.164;2023-07-20T05:52:36;23.57;;;9.70;;
151;SDS011;68;48.792;9.164;2023-07-20T05:55:04;21.80;;;8.50;;
151;SDS011;68;48.792;9.164;2023-07-20T05:57:31;23.70;;;9.87;;
151;SDS011;68;48.792;9.164;2023-07-20T05:59:58;25.10;;;13.00;;
151;SDS011;68;48.792;9.164;2023-07-20T06:02:25;21.73;;;9.97;;
151;SDS011;68;48.792;9.164;2023-07-20T06:04:52;25.87;;;11.17;;
151;SDS011;68;48.792;9.164;2023-07-20T06:07:21;24.67;;;10.70;;
151;SDS011;68;48.792;9.164;2023-07-20T06:09:47;21.50;;;9.90;;
151;SDS011;68;48.792;9.164;2023-07-20T06:12:14;26.43;;;11.63;;
151;SDS011;68;48.792;9.164;2023-07-20T06:14:41;23.10;;;10.10;;
151;SDS011;68;48.792;9.164;2023-07-20T06:17:08;25.57;;;12.50;;
151;SDS011;68;48.792;9.164;2023-07-20T06:19:35;24.13;;;9.60;;
151;SDS011;68;48.792;9.164;2023-07-20T06:22:02;23.57;;;9.30;;
151;SDS011;68;48.792;9.164;2023-07-20T06:24:30;25.70;;;9.00;;
151;SDS011;68;48.792;9.164;2023-07-20T06:26:57;26.03;;;12.20;;
151;SDS011;68;48.792;9.164;2023-07-20T06:29:24;22.93;;;10.07;;
151;SDS011;68;48.792;9.164;2023-07-20T06:31:51;21.53;;;8.90;;
151;SDS011;68;48.792;9.164;2023-07-20T06:34:17;28.00;;;11.80;;
151;SDS011;68;48.792;9.164;2023-07-20T06:36:44;32.37;;;10.70;;
151;SDS011;68;48.792;9.164;2023-07-20T06:39:11;22.60;;;10.10;;
151;SDS011;68;48.792;9.164;2023-07-20T06:41:40;25.50;;;8.90;;
151;SDS011;68;48.792;9.164;2023-07-20T06:44:07;25.97;;;11.50;;
151;SDS011;68;48.792;9.164;2023-07-20T06:46:34;22.07;;;8.60;;
151;SDS011;68;48.792;9.164;2023-07-20T06:49:00;23.27;;;8.00;;
151;SDS011;68;48.792;9.164;2023-07-20T06:51:27;22.50;;;9.70;;
151;SDS011;68;48.792;9.164;2023-07-20T06:53:54;21.90;;;8.30;;
151;SDS011;68;48.792;9.164;2023-07-20T06:56:21;21.47;;;9.57;;
151;SDS011;68;48.792;9.164;2023-07-20T06:58:49;21.60;;;8.80;;
151;SDS011;68;48.792;9.164;2023-07-20T07:01:15;28.13;;;9.33;;
151;SDS011;68;48.792;9.164;2023-07-20T07:03:42;23.93;;;10.30;;
151;SDS011;68;48.792;9.164;2023-07-20T07:06:10;22.97;;;8.90;;
151;SDS011;68;48.792;9.164;2023-07-20T07:08:37;23.00;;;9.80;;
151;SDS011;68;48.792;9.164;2023-07-20T07:11:04;38.73;;;9.07;;
151;SDS011;68;48.792;9.164;2023-07-20T07:13:31;23.53;;;10.80;;
151;SDS011;68;48.792;9.164;2023-07-20T07:15:59;25.47;;;9.67;;
151;SDS011;68;48.792;9.164;2023-07-20T07:18:26;29.27;;;7.03;;
151;SDS011;68;48.792;9.164;2023-07-20T07:20:52;24.43;;;12.43;;
151;SDS011;68;48.792;9.164;2023-07-20T07:23:19;22.63;;;8.90;;
151;SDS011;68;48.792;9.164;2023-07-20T07:25:46;23.50;;;10.43;;
151;SDS011;68;48.792;9.164;2023-07-20T07:28:13;23.10;;;9.77;;
151;SDS011;68;48.792;9.164;2023-07-20T07:30:40;33.50;;;7.50;;
151;SDS011;68;48.792;9.164;2023-07-20T07:33:08;27.57;;;10.40;;
151;SDS011;68;48.792;9.164;2023-07-20T07:35:35;23.73;;;9.20;;
151;SDS011;68;48.792;9.164;2023-07-20T07:38:02;24.00;;;8.50;;
151;SDS011;68;48.792;9.164;2023-07-20T07:40:30;23.03;;;10.10;;
151;SDS011;68;48.792;9.164;2023-07-20T07:42:57;24.57;;;8.50;;
151;SDS011;68;48.792;9.164;2023-07-20T07:45:23;22.43;;;8.00;;
151;SDS011;68;48.792;9.164;2023-07-20T07:47:50;26.17;;;11.20;;
151;SDS011;68;48.792;9.164;2023-07-20T07:50:18;25.03;;;8.60;;
151;SDS011;68;48.792;9.164;2023-07-20T07:52:45;21.50;;;8.17;;
151;SDS011;68;48.792;9.164;2023-07-20T07:55:12;24.30;;;9.33;;
151;SDS011;68;48.792;9.164;2023-07-20T07:57:41;25.07;;;7.53;;
151;SDS011;68;48.792;9.164;2023-07-20T08:00:09;22.20;;;8.77;;
151;SDS011;68;48.792;9.164;2023-07-20T08:02:39;21.60;;;8.20;;
151;SDS011;68;48.792;9.164;2023-07-20T08:05:06;23.33;;;8.77;;
151;SDS011;68;48.792;9.164;2023-07-20T08:07:35;25.63;;;8.43;;
151;SDS011;68;48.792;9.164;2023-07-20T08:10:02;21.57;;;9.17;;
151;SDS011;68;48.792;9.164;2023-07-20T08:12:29;20.47;;;7.47;;
151;SDS011;68;48.792;9.164;2023-07-20T08:14:56;22.20;;;6.93;;
151;SDS011;68;48.792;9.164;2023-07-20T08:17:22;21.40;;;6.77;;
151;SDS011;68;48.792;9.164;2023-07-20T08:19:49;22.40;;;7.33;;
151;SDS011;68;48.792;9.164;2023-07-20T08:22:16;21.60;;;7.27;;
151;SDS011;68;48.792;9.164;2023-07-20T08:24:44;19.10;;;6.30;;
151;SDS011;68;48.792;9.164;2023-07-20T08:27:11;22.73;;;7.30;;
151;SDS011;68;48.792;9.164;2023-07-20T08:29:38;20.27;;;6.77;;
151;SDS011;68;48.792;9.164;2023-07-20T08:32:05;22.60;;;6.50;;
151;SDS011;68;48.792;9.164;2023-07-20T08:34:33;20.60;;;7.23;;
151;SDS011;68;48.792;9.164;2023-07-20T08:36:59;24.10;;;8.80;;
151;SDS011;68;48.792;9.164;2023-07-20T08:39:26;20.97;;;7.83;;
151;SDS011;68;48.792;9.164;2023-07-20T08:41:54;22.63;;;9.40;;
151;SDS011;68;48.792;9.164;2023-07-20T08:44:22;23.40;;;9.50;;
151;SDS011;68;48.792;9.164;2023-07-20T08:46:50;24.23;;;6.87;;
151;SDS011;68;48.792;9.164;2023-07-20T08:49:18;23.07;;;8.30;;
151;SDS011;68;48.792;9.164;2023-07-20T08:51:45;21.90;;;7.10;;
151;SDS011;68;48.792;9.164;2023-07-20T08:54:14;30.80;;;7.47;;
151;SDS011;68;48.792;9.164;2023-07-20T08:56:42;27.70;;;8.33;;
151;SDS011;68;48.792;9.164;2023-07-20T08:59:13;21.50;;;7.20;;
151;SDS011;68;48.792;9.164;2023-07-20T09:01:44;19.70;;;5.57;;
151;SDS011;68;48.792;9.164;2023-07-20T09:04:11;19.13;;;6.10;;
151;SDS011;68;48.792;9.164;2023-07-20T09:06:38;21.90;;;5.47;;
151;SDS011;68;48.792;9.164;2023-07-20T09:09:05;24.20;;;7.07;;
151;SDS011;68;48.792;9.164;2023-07-20T09:11:32;20.80;;;7.77;;
151;SDS011;68;48.792;9.164;2023-07-20T09:14:02;23.03;;;6.90;;
151;SDS011;68;48.792;9.164;2023-07-20T09:16:31;24.30;;;6.10;;
151;SDS011;68;48.792;9.164;2023-07-20T09:18:58;22.90;;;7.77;;
151;SDS011;68;48.792;9.164;2023-07-20T09:21:28;22.43;;;9.17;;
151;SDS011;68;48.792;9.164;2023-07-20T09:23:56;23.57;;;8.40;;
151;SDS011;68;48.792;9.164;2023-07-20T09:26:23;19.20;;;5.40;;
151;SDS011;68;48.792;9.164;2023-07-20T09:28:51;20.07;;;5.30;;
151;SDS011;68;48.792;9.164;2023-07-20T09:31:19;20.87;;;6.57;;
151;SDS011;68;48.792;9.164;2023-07-20T09:33:49;20.03;;;6.60;;
151;SDS011;68;48.792;9.164;2023-07-20T09:36:19;23.73;;;7.33;;
151;SDS011;68;48.792;9.164;2023-07-20T09:38:46;20.00;;;5.83;;
151;SDS011;68;48.792;9.164;2023-07-20T09:41:13;21.47;;;7.10;;
151;SDS011;68;48.792;9.164;2023-07-20T09:43:40;22.70;;;6.80;;
151;SDS011;68;48.792;9.164;2023-07-20T09:46:08;22.43;;;5.90;;
151;SDS011;68;48.792;9.164;2023-07-20T09:48:35;24.33;;;5.70;;
151;SDS011;68;48.792;9.164;2023-07-20T09:51:03;20.50;;;5.07;;
151;SDS011;68;48.792;9.164;2023-07-20T09:53:31;20.40;;;4.60;;
151;SDS011;68;48.792;9.164;2023-07-20T09:56:00;22.10;;;6.37;;
151;SDS011;68;48.792;9.164;2023-07-20T09:58:28;20.80;;;5.23;;
151;SDS011;68;48.792;9.164;2023-07-20T10:00:57;19.00;;;5.00;;
151;SDS011;68;48.792;9.164;2023-07-20T10:03:28;28.90;;;6.13;;
151;SDS011;68;48.792;9.164;2023-07-20T10:05:56;19.00;;;4.97;;
151;SDS011;68;48.792;9.164;2023-07-20T10:08:25;19.77;;;6.37;;
151;SDS011;68;48.792;9.164;2023-07-20T10:10:54;18.77;;;5.17;;
151;SDS011;68;48.792;9.164;2023-07-20T10:13:25;21.90;;;5.10;;
151;SDS011;68;48.792;9.164;2023-07-20T10:15:53;21.30;;;4.53;;
151;SDS011;68;48.792;9.164;2023-07-20T10:18:25;20.30;;;4.27;;
151;SDS011;68;48.792;9.164;2023-07-20T10:20:55;18.23;;;4.10;;
151;SDS011;68;48.792;9.164;2023-07-20T10:23:26;18.90;;;4.17;;
151;SDS011;68;48.792;9.164;2023-07-20T10:25:55;19.87;;;4.07;;
151;SDS011;68;48.792;9.164;2023-07-20T10:28:22;24.23;;;4.63;;
151;SDS011;68;48.792;9.164;2023-07-20T10:30:50;27.13;;;4.07;;
151;SDS011;68;48.792;9.164;2023-07-20T10:33:17;18.87;;;4.17;;
151;SDS011;68;48.792;9.164;2023-07-20T10:35:54;17.80;;;3.60;;
151;SDS011;68;48.792;9.164;2023-07-20T10:41:18;21.43;;;4.37;;
151;SDS011;68;48.792;9.164;2023-07-20T10:43:46;19.57;;;3.60;;
151;SDS011;68;48.792;9.164;2023-07-20T10:46:13;19.60;;;3.60;;
151;SDS011;68;48.792;9.164;2023-07-20T10:48:59;18.50;;;3.87;;
151;SDS011;68;48.792;9.164;2023-07-20T10:51:27;20.20;;;3.67;;
151;SDS011;68;48.792;9.164;2023-07-20T10:53:56;19.60;;;4.63;;
151;SDS011;68;48.792;9.164;2023-07-20T10:56:25;18.57;;;4.00;;
151;SDS011;68;48.792;9.164;2023-07-20T10:58:55;21.80;;;3.67;;
151;SDS011;68;48.792;9.164;2023-07-20T11:01:27;18.53;;;4.07;;
151;SDS011;68;48.792;9.164;2023-07-20T11:03:57;18.83;;;3.40;;
151;SDS011;68;48.792;9.164;2023-07-20T11:06:30;18.33;;;3.93;;
151;SDS011;68;48.792;9.164;2023-07-20T11:09:04;19.50;;;3.73;;
151;SDS011;68;48.792;9.164;2023-07-20T11:11:33;19.97;;;3.73;;
151;SDS011;68;48.792;9.164;2023-07-20T11:14:01;18.87;;;3.60;;
151;SDS011;68;48.792;9.164;2023-07-20T11:16:39;18.50;;;3.50;;
151;SDS011;68;48.792;9.164;2023-07-20T11:19:13;20.00;;;3.90;;
151;SDS011;68;48.792;9.164;2023-07-20T11:21:42;18.10;;;3.20;;
151;SDS011;68;48.792;9.164;2023-07-20T11:24:11;22.30;;;3.70;;
151;SDS011;68;48.792;9.164;2023-07-20T11:26:42;22.30;;;3.77;;
151;SDS011;68;48.792;9.164;2023-07-20T11:29:09;19.50;;;3.97;;
151;SDS011;68;48.792;9.164;2023-07-20T11:31:37;19.27;;;3.80;;
151;SDS011;68;48.792;9.164;2023-07-20T11:34:04;18.47;;;3.47;;
151;SDS011;68;48.792;9.164;2023-07-20T11:36:31;26.10;;;4.10;;
151;SDS011;68;48.792;9.164;2023-07-20T11:38:59;21.20;;;3.63;;
151;SDS011;68;48.792;9.164;2023-07-20T11:41:27;20.00;;;3.93;;
151;SDS011;68;48.792;9.164;2023-07-20T11:43:54;19.20;;;3.70;;
151;SDS011;68;48.792;9.164;2023-07-20T11:46:21;19.37;;;3.60;;
151;SDS011;68;48.792;9.164;2023-07-20T11:48:48;21.60;;;3.40;;
151;SDS011;68;48.792;9.164;2023-07-20T11:51:15;19.57;;;3.53;;
151;SDS011;68;48.792;9.164;2023-07-20T11:53:43;18.87;;;3.50;;
151;SDS011;68;48.792;9.164;2023-07-20T11:56:11;19.27;;;3.07;;
151;SDS011;68;48.792;9.164;2023-07-20T11:58:42;21.43;;;3.67;;
151;SDS011;68;48.792;9.164;2023-07-20T12:01:11;21.03;;;3.73;;
151;SDS011;68;48.792;9.164;2023-07-20T12:03:38;21.80;;;3.27;;
151;SDS011;68;48.792;9.164;2023-07-20T12:06:08;19.10;;;3.00;;
151;SDS011;68;48.792;9.164;2023-07-20T12:08:37;18.70;;;3.20;;
151;SDS011;68;48.792;9.164;2023-07-20T12:11:05;24.90;;;3.10;;
151;SDS011;68;48.792;9.164;2023-07-20T12:13:36;19.03;;;3.50;;
151;SDS011;68;48.792;9.164;2023-07-20T12:16:09;25.43;;;5.93;;
151;SDS011;68;48.792;9.164;2023-07-20T12:18:37;20.97;;;3.10;;
151;SDS011;68;48.792;9.164;2023-07-20T12:21:05;19.10;;;3.40;;
151;SDS011;68;48.792;9.164;2023-07-20T12:23:36;18.67;;;3.50;;
151;SDS011;68;48.792;9.164;2023-07-20T12:26:05;19.30;;;3.90;;
151;SDS011;68;48.792;9.164;2023-07-20T12:28:35;19.07;;;3.90;;
151;SDS011;68;48.792;9.164;2023-07-20T12:31:07;20.30;;;3.80;;
151;SDS011;68;48.792;9.164;2023-07-20T12:33:36;18.73;;;3.60;;
151;SDS011;68;48.792;9.164;2023-07-20T12:36:03;19.70;;;3.50;;
151;SDS011;68;48.792;9.164;2023-07-20T12:38:31;19.57;;;3.50;;
151;SDS011;68;48.792;9.164;2023-07-20T12:40:58;18.50;;;3.40;;
151;SDS011;68;48.792;9.164;2023-07-20T12:43:26;24.57;;;3.57;;
151;SDS011;68;48.792;9.164;2023-07-20T12:45:53;21.30;;;3.40;;
151;SDS011;68;48.792;9.164;2023-07-20T12:48:20;21.27;;;3.30;;
151;SDS011;68;48.792;9.164;2023-07-20T12:50:49;21.37;;;3.63;;
151;SDS011;68;48.792;9.164;2023-07-20T12:53:16;19.30;;;3.70;;
151;SDS011;68;48.792;9.164;2023-07-20T12:55:42;21.70;;;3.47;;
151;SDS011;68;48.792;9.164;2023-07-20T12:58:09;18.70;;;3.73;;
151;SDS011;68;48.792;9.164;2023-07-20T13:00:37;19.70;;;3.37;;
151;SDS011;68;48.792;9.164;2023-07-20T13:03:04;24.20;;;3.87;;
151;SDS011;68;48.792;9.164;2023-07-20T13:05:32;22.83;;;3.40;;
151;SDS011;68;48.792;9.164;2023-07-20T13:08:01;20.10;;;3.73;;
151;SDS011;68;48.792;9.164;2023-07-20T13:10:28;21.00;;;3.67;;
151;SDS011;68;48.792;9.164;2023-07-20T13:12:55;21.13;;;3.83;;
151;SDS011;68;48.792;9.164;2023-07-20T13:15:24;22.43;;;5.33;;
151;SDS011;68;48.792;9.164;2023-07-20T13:17:55;21.17;;;4.33;;
151;SDS011;68;48.792;9.164;2023-07-20T13:20:21;21.70;;;3.57;;
151;SDS011;68;48.792;9.164;2023-07-20T13:22:48;19.60;;;3.50;;
151;SDS011;68;48.792;9.164;2023-07-20T13:25:17;20.10;;;3.60;;
151;SDS011;68;48.792;9.164;2023-07-20T13:27:45;18.90;;;3.40;;
151;SDS011;68;48.792;9.164;2023-07-20T13:30:12;18.60;;;3.60;;
151;SDS011;68;48.792;9.164;2023-07-20T13:32:41;19.63;;;3.60;;
151;SDS011;68;48.792;9.164;2023-07-20T13:35:08;20.33;;;3.90;;
151;SDS011;68;48.792;9.164;2023-07-20T13:37:35;21.60;;;3.77;;
151;SDS011;68;48.792;9.164;2023-07-20T13:40:02;20.40;;;3.23;;
151;SDS011;68;48.792;9.164;2023-07-20T13:42:31;20.90;;;3.90;;
151;SDS011;68;48.792;9.164;2023-07-20T13:44:59;19.50;;;3.73;;
151;SDS011;68;48.792;9.164;2023-07-20T13:47:26;19.00;;;3.40;;
151;SDS011;68;48.792;9.164;2023-07-20T13:49:53;20.47;;;3.83;;
151;SDS011;68;48.792;9.164;2023-07-20T13:52:19;20.80;;;3.93;;
151;SDS011;68;48.792;9.164;2023-07-20T13:54:46;21.53;;;3.70;;
151;SDS011;68;48.792;9.164;2023-07-20T13:57:14;25.27;;;3.23;;
151;SDS011;68;48.792;9.164;2023-07-20T13:59:42;19.57;;;3.60;;
151;SDS011;68;48.792;9.164;2023-07-20T14:02:10;23.40;;;4.07;;
151;SDS011;68;48.792;9.164;2023-07-20T14:04:38;19.00;;;3.30;;
151;SDS011;68;48.792;9.164;2023-07-20T14:07:05;19.00;;;3.70;;
151;SDS011;68;48.792;9.164;2023-07-20T14:09:32;23.10;;;3.63;;
151;SDS011;68;48.792;9.164;2023-07-20T14:11:59;20.13;;;3.93;;
151;SDS011;68;48.792;9.164;2023-07-20T14:14:25;26.70;;;4.60;;
151;SDS011;68;48.792;9.164;2023-07-20T14:16:54;18.90;;;3.67;;
151;SDS011;68;48.792;9.164;2023-07-20T14:19:21;23.63;;;3.70;;
151;SDS011;68;48.792;9.164;2023-07-20T14:21:48;20.50;;;4.20;;
151;SDS011;68;48.792;9.164;2023-07-20T14:24:15;19.40;;;3.47;;
151;SDS011;68;48.792;9.164;2023-07-20T14:26:42;19.47;;;3.73;;
151;SDS011;68;48.792;9.164;2023-07-20T14:29:08;19.57;;;3.77;;
151;SDS011;68;48.792;9.164;2023-07-20T14:31:35;20.63;;;4.83;;
151;SDS011;68;48.792;9.164;2023-07-20T14:34:03;22.90;;;3.80;;
151;SDS011;68;48.792;9.164;2023-07-20T14:36:30;21.97;;;3.60;;
151;SDS011;68;48.792;9.164;2023-07-20T14:38:57;21.47;;;4.10;;
151;SDS011;68;48.792;9.164;2023-07-20T14:41:23;20.43;;;3.97;;
151;SDS011;68;48.792;9.164;2023-07-20T14:43:51;19.73;;;3.33;;
151;SDS011;68;48.792;9.164;2023-07-20T14:46:17;20.03;;;3.50;;
151;SDS011;68;48.792;9.164;2023-07-20T14:48:44;21.20;;;4.67;;
151;SDS011;68;48.792;9.164;2023-07-20T14:51:13;20.27;;;3.93;;
151;SDS011;68;48.792;9.164;2023-07-20T14:53:40;21.27;;;4.27;;
151;SDS011;68;48.792;9.164;2023-07-20T14:56:07;18.80;;;3.67;;
151;SDS011;68;48.792;9.164;2023-07-20T14:58:34;21.07;;;4.13;;
151;SDS011;68;48.792;9.164;2023-07-20T15:01:00;19.60;;;3.37;;
151;SDS011;68;48.792;9.164;2023-07-20T15:03:27;19.10;;;4.27;;
151;SDS011;68;48.792;9.164;2023-07-20T15:05:56;21.27;;;4.60;;
151;SDS011;68;48.792;9.164;2023-07-20T15:08:24;19.03;;;3.47;;
151;SDS011;68;48.792;9.164;2023-07-20T15:10:50;22.53;;;4.13;;
151;SDS011;68;48.792;9.164;2023-07-20T15:13:17;27.27;;;3.77;;
151;SDS011;68;48.792;9.164;2023-07-20T15:15:44;20.40;;;3.90;;
151;SDS011;68;48.792;9.164;2023-07-20T15:18:11;22.77;;;3.77;;
151;SDS011;68;48.792;9.164;2023-07-20T15:20:37;20.10;;;3.70;;
151;SDS011;68;48.792;9.164;2023-07-20T15:23:04;18.83;;;3.50;;
151;SDS011;68;48.792;9.164;2023-07-20T15:25:33;20.80;;;3.97;;
151;SDS011;68;48.792;9.164;2023-07-20T15:28:00;19.30;;;3.67;;
151;SDS011;68;48.792;9.164;2023-07-20T15:30:26;18.73;;;3.97;;
151;SDS011;68;48.792;9.164;2023-07-20T15:32:54;21.80;;;6.10;;
151;SDS011;68;48.792;9.164;2023-07-20T15:35:21;21.73;;;3.63;;
151;SDS011;68;48.792;9.164;2023-07-20T15:37:48;22.50;;;3.97;;
151;SDS011;68;48.792;9.164;2023-07-20T15:40:15;23.20;;;4.07;;
151;SDS011;68;48.792;9.164;2023-07-20T15:42:43;20.70;;;3.90;;
151;SDS011;68;48.792;9.164;2023-07-20T15:45:11;22.30;;;4.40;;
151;SDS011;68;48.792;9.164;2023-07-20T15:47:37;20.50;;;4.10;;